Aeroporto :
LOGIN :

Iscrizione | Disclaimer

   EN    FR    IT 

 










Sommario :    VFR   VFR Marginale   IFR   IFR Intensivo   IFR Molto Intensivo
Visibilità : 
Base nubi : 
>= 8 km
>= 3000ft
5 / 8 km
1000 / 3000 ft
1500m / 5 km
500 / 1000 ft
800 / 1500m
200 / 500 ft
< 800m
< 200 ft
Simboli :   Temporali  Nebbia  Neve Forte  Precipitazioni Forti  Vento > 20 kt
SIGMETs :   Varie  Temporali  Ghiacco  Turbolenza  Onda orograficha  Ceneri Vulcaniche






- Altitudine del aeroporto : 2776 ft
- Codice IATA : VLL


LEVD - Valladolid

ULTIMO METAR :
  • 072200Z AUTO 17005KT 4000 BR NCD 02/02 Q1025

METARs OBSOLETI :
  • 072130Z AUTO 20004KT 3000 1100 BR NCD 04/04 Q1025
  • 072100Z AUTO 21003KT 0500 0400 R23/0800N R05/P2000 FG VV/// 03/02 Q1025
  • 072030Z 19001KT 3000 BR NSC 03/03 Q1025
  • 072000Z 00000KT 4000 BR NSC 03/02 Q1025
  • 071930Z 23001KT 4000 BR NSC 04/03 Q1025

TAF AMD TAF LEVD
Valido dal 07 a 19 ore il 08 a 18 ore UTC


071956Z 0719/0818 VRB04KT CAVOK TX11/0815Z TN01/0806Z
TEMPO 0719/0724 4000 BR NSC
TEMPO 0800/0811 2000 BR BKN008
PROB40
TEMPO 0800/0810 0100 FG VV001
TEMPO 0812/0818 3000 RA BKN030



MetMap, La meteo Aeronautica in un colpo d'occhio ! - Copyright ORBIFLY Dicembre 2007 - Disclaimer

ORBIFLY MET'MAP TEAM :

Programmazione e sviluppo : Alexandra Zaïnal
Concezione : Baudouin d'Aumeries
Aiuto per la programmazione : Marc-Olivier Méhu
Supporto tecnico e logistico : Manuel Goepfert
Aiuto per la traduzione : Arnaldo La Scala

Contatto : metmap@orbifly.com




FONTI E CREDITI :

   NOAA